createdAt,value
2018-09-24T00:02:24.764Z,10.60
2018-09-24T00:04:52.925Z,10.60
2018-09-24T00:07:21.077Z,10.60
2018-09-24T00:09:49.242Z,10.40
2018-09-24T00:12:17.402Z,10.30
2018-09-24T00:14:45.556Z,10.30
2018-09-24T00:17:13.690Z,10.20
2018-09-24T00:19:41.836Z,10.30
2018-09-24T00:22:09.980Z,10.20
2018-09-24T00:24:38.129Z,10.20
2018-09-24T00:27:06.270Z,10.00
2018-09-24T00:29:34.429Z,10.10
2018-09-24T00:32:02.597Z,10.00
2018-09-24T00:34:30.757Z,10.00
2018-09-24T00:36:59.114Z,9.90
2018-09-24T00:39:27.331Z,9.90
2018-09-24T00:41:55.498Z,9.90
2018-09-24T00:44:23.665Z,9.90
2018-09-24T00:46:51.825Z,9.80
2018-09-24T00:49:19.997Z,9.90
2018-09-24T00:51:48.137Z,9.80
2018-09-24T00:54:16.277Z,9.80
2018-09-24T00:56:44.432Z,9.80
2018-09-24T00:59:12.624Z,9.80
2018-09-24T01:01:40.796Z,9.80
2018-09-24T01:04:08.932Z,9.80
2018-09-24T01:06:37.090Z,9.70
2018-09-24T01:09:07.341Z,9.70
2018-09-24T01:11:35.497Z,9.80
2018-09-24T01:14:03.632Z,9.70
2018-09-24T01:16:31.771Z,9.70
2018-09-24T01:18:59.924Z,9.60
2018-09-24T01:21:28.057Z,9.60
2018-09-24T01:23:56.217Z,9.60
2018-09-24T01:26:24.369Z,9.70
2018-09-24T01:28:52.540Z,9.60
2018-09-24T01:31:20.696Z,9.60
2018-09-24T01:33:48.855Z,9.60
2018-09-24T01:36:17.033Z,9.60
2018-09-24T01:38:45.216Z,9.60
2018-09-24T01:41:13.363Z,9.60
2018-09-24T01:43:41.617Z,9.60
2018-09-24T01:46:09.765Z,9.60
2018-09-24T01:48:37.912Z,9.70
2018-09-24T01:51:06.138Z,9.70
2018-09-24T01:53:34.285Z,9.70
2018-09-24T01:56:02.437Z,9.70
2018-09-24T01:58:32.448Z,9.70
2018-09-24T02:01:00.594Z,9.70
2018-09-24T02:03:33.725Z,9.70
2018-09-24T02:06:02.220Z,9.70
2018-09-24T02:08:30.401Z,9.70
2018-09-24T02:10:58.549Z,9.70
2018-09-24T02:13:26.693Z,9.70
2018-09-24T02:15:54.860Z,9.70
2018-09-24T02:18:22.994Z,9.50
2018-09-24T02:20:51.145Z,9.50
2018-09-24T02:23:19.285Z,9.50
2018-09-24T02:25:47.434Z,9.50
2018-09-24T02:28:15.580Z,9.40
2018-09-24T02:30:43.735Z,9.30
2018-09-24T02:33:12.950Z,9.30
2018-09-24T02:35:47.981Z,9.30
2018-09-24T02:38:16.519Z,9.20
2018-09-24T02:40:44.689Z,9.20
2018-09-24T02:43:12.841Z,9.10
2018-09-24T02:45:41.023Z,9.10
2018-09-24T02:48:09.197Z,9.10
2018-09-24T02:50:38.865Z,9.00
2018-09-24T02:53:08.463Z,9.00
2018-09-24T02:55:36.629Z,9.00
2018-09-24T02:58:04.793Z,9.00
2018-09-24T03:00:32.954Z,9.00
2018-09-24T03:03:02.392Z,9.00
2018-09-24T03:05:30.548Z,9.10
2018-09-24T03:07:58.719Z,9.10
2018-09-24T03:10:26.877Z,9.10
2018-09-24T03:12:55.065Z,9.10
2018-09-24T03:15:23.226Z,9.20
2018-09-24T03:17:51.380Z,9.20
2018-09-24T03:20:19.533Z,9.30
2018-09-24T03:22:47.706Z,9.20
2018-09-24T03:25:18.288Z,9.30
2018-09-24T03:27:46.632Z,9.20
2018-09-24T03:30:14.889Z,9.30
2018-09-24T03:32:43.124Z,9.30
2018-09-24T03:35:11.280Z,9.40
2018-09-24T03:37:39.462Z,9.30
2018-09-24T03:40:07.605Z,9.30
2018-09-24T03:42:35.768Z,9.30
2018-09-24T03:45:03.934Z,9.30
2018-09-24T03:47:32.104Z,9.30
2018-09-24T03:50:00.233Z,9.20
2018-09-24T03:52:28.376Z,9.30
2018-09-24T03:54:56.521Z,9.30
2018-09-24T03:57:24.678Z,9.20
2018-09-24T03:59:52.821Z,9.10
2018-09-24T04:02:20.968Z,9.10
2018-09-24T04:04:54.493Z,8.90
2018-09-24T04:07:27.946Z,8.90
2018-09-24T04:10:01.582Z,8.80
2018-09-24T04:12:35.169Z,8.80
2018-09-24T04:15:08.803Z,8.80
2018-09-24T04:17:42.457Z,8.70
2018-09-24T04:20:16.004Z,8.80
2018-09-24T04:22:49.624Z,8.70
2018-09-24T04:25:23.128Z,8.70
2018-09-24T04:27:56.842Z,8.70
2018-09-24T04:30:30.489Z,8.60
2018-09-24T04:33:04.221Z,8.50
2018-09-24T04:35:37.780Z,8.40
2018-09-24T04:38:11.481Z,8.40
2018-09-24T04:40:45.197Z,8.30
2018-09-24T04:43:18.730Z,8.30
2018-09-24T04:45:52.380Z,8.30
2018-09-24T04:48:26.073Z,8.20
2018-09-24T04:50:59.565Z,8.30
2018-09-24T04:53:33.244Z,8.30
2018-09-24T04:56:06.802Z,8.40
2018-09-24T04:58:40.421Z,8.40
2018-09-24T05:01:14.471Z,8.40
2018-09-24T05:03:48.100Z,8.30
2018-09-24T05:06:21.749Z,8.30
2018-09-24T05:08:55.345Z,8.20
2018-09-24T05:11:28.712Z,8.20
2018-09-24T05:14:02.222Z,8.10
2018-09-24T05:16:35.863Z,8.10
2018-09-24T05:19:09.487Z,8.10
2018-09-24T05:21:43.110Z,8.10
2018-09-24T05:24:16.668Z,8.10
2018-09-24T05:26:50.289Z,8.00
2018-09-24T05:29:23.864Z,8.00
2018-09-24T05:31:57.549Z,8.00
2018-09-24T05:34:31.469Z,8.00
2018-09-24T05:37:04.841Z,8.00
2018-09-24T05:39:38.521Z,8.00
2018-09-24T05:42:12.209Z,8.00
2018-09-24T05:44:45.645Z,8.10
2018-09-24T05:47:19.273Z,8.00
2018-09-24T05:49:52.811Z,8.00
2018-09-24T05:52:26.436Z,8.10
2018-09-24T05:55:00.123Z,8.20
2018-09-24T05:57:33.722Z,8.30
2018-09-24T06:00:07.310Z,8.50
2018-09-24T06:02:40.922Z,8.60
2018-09-24T06:05:14.485Z,8.70
2018-09-24T06:07:48.088Z,8.80
2018-09-24T06:10:21.780Z,8.80
2018-09-24T06:12:55.466Z,8.90
2018-09-24T06:15:28.954Z,8.90
2018-09-24T06:18:02.485Z,9.10
2018-09-24T06:20:36.137Z,9.30
2018-09-24T06:23:09.824Z,9.50
2018-09-24T06:25:43.309Z,9.70
2018-09-24T06:28:16.841Z,10.10
2018-09-24T06:30:50.502Z,10.20
2018-09-24T06:33:24.023Z,10.20
2018-09-24T06:35:57.648Z,10.30
2018-09-24T06:38:31.317Z,10.10
2018-09-24T06:41:04.955Z,10.30
2018-09-24T06:43:38.381Z,10.50
2018-09-24T06:46:12.463Z,10.70
2018-09-24T06:48:46.097Z,10.80
2018-09-24T06:51:19.751Z,10.80
2018-09-24T06:53:53.433Z,10.90
2018-09-24T06:56:27.045Z,10.80
2018-09-24T06:59:00.701Z,11.00
2018-09-24T07:01:34.296Z,10.90
2018-09-24T07:04:08.000Z,10.90
2018-09-24T07:06:41.653Z,10.80
2018-09-24T07:09:15.124Z,10.90
2018-09-24T07:11:48.528Z,10.70
2018-09-24T07:14:22.222Z,10.50
2018-09-24T07:16:55.796Z,10.60
2018-09-24T07:19:29.418Z,10.70
2018-09-24T07:22:02.951Z,10.80
2018-09-24T07:24:36.624Z,10.90
2018-09-24T07:27:10.314Z,11.30
2018-09-24T07:29:43.961Z,11.80
2018-09-24T07:32:17.464Z,12.20
2018-09-24T07:34:51.109Z,12.50
2018-09-24T07:37:24.676Z,12.40
2018-09-24T07:39:58.341Z,11.70
2018-09-24T07:42:32.009Z,11.70
2018-09-24T07:45:05.540Z,11.70
2018-09-24T07:47:39.137Z,11.70
2018-09-24T07:50:12.770Z,12.20
2018-09-24T07:52:46.432Z,12.70
2018-09-24T07:55:20.137Z,13.10
2018-09-24T07:57:53.682Z,13.50
2018-09-24T08:00:27.326Z,13.60
2018-09-24T08:03:00.745Z,14.00
2018-09-24T08:05:34.376Z,14.40
2018-09-24T08:08:07.925Z,14.30
2018-09-24T08:10:41.616Z,15.10
2018-09-24T08:13:15.074Z,15.20
2018-09-24T08:15:48.726Z,14.50
2018-09-24T08:18:22.388Z,13.70
2018-09-24T08:20:56.026Z,14.70
2018-09-24T08:23:29.408Z,15.50
2018-09-24T08:26:03.081Z,16.00
2018-09-24T08:28:36.688Z,16.30
2018-09-24T08:31:10.321Z,16.70
2018-09-24T08:33:44.049Z,15.50
2018-09-24T08:36:17.572Z,14.20
2018-09-24T08:38:50.949Z,14.40
2018-09-24T08:41:24.457Z,15.40
2018-09-24T08:43:58.202Z,15.40
2018-09-24T08:46:31.701Z,15.80
2018-09-24T08:49:05.293Z,17.20
2018-09-24T08:51:38.741Z,17.70
2018-09-24T08:54:12.525Z,16.70
2018-09-24T08:56:46.245Z,16.90
2018-09-24T08:59:19.920Z,16.50
2018-09-24T09:01:53.566Z,17.20
2018-09-24T09:04:27.148Z,17.60
2018-09-24T09:07:00.713Z,18.10
2018-09-24T09:09:34.353Z,18.10
2018-09-24T09:12:07.971Z,17.80
2018-09-24T09:14:41.617Z,17.60
2018-09-24T09:17:15.324Z,17.00
2018-09-24T09:19:49.030Z,16.90
2018-09-24T09:22:22.671Z,18.00
2018-09-24T09:24:56.381Z,18.40
2018-09-24T09:27:29.860Z,17.90
2018-09-24T09:30:03.426Z,17.40
2018-09-24T09:32:37.132Z,16.90
2018-09-24T09:35:10.833Z,17.40
2018-09-24T09:37:44.483Z,17.20
2018-09-24T09:40:18.132Z,18.30
2018-09-24T09:42:51.777Z,17.80
2018-09-24T09:45:25.390Z,18.60
2018-09-24T09:47:58.796Z,18.40
2018-09-24T09:50:32.468Z,18.40
2018-09-24T09:53:06.104Z,18.80
2018-09-24T09:55:39.723Z,18.90
2018-09-24T09:58:13.425Z,18.50
2018-09-24T10:00:47.009Z,18.60
2018-09-24T10:03:20.661Z,18.70
2018-09-24T10:05:54.341Z,18.90
2018-09-24T10:08:27.793Z,19.00
2018-09-24T10:11:01.426Z,17.00
2018-09-24T10:13:35.032Z,16.10
2018-09-24T10:16:15.714Z,16.50
2018-09-24T10:18:49.383Z,17.60
2018-09-24T10:21:23.052Z,18.20
2018-09-24T10:23:56.777Z,18.70
2018-09-24T10:26:30.425Z,18.80
2018-09-24T10:29:04.094Z,18.30
2018-09-24T10:31:37.555Z,18.90
2018-09-24T10:34:11.264Z,18.50
2018-09-24T10:36:44.925Z,18.50
2018-09-24T10:39:18.604Z,17.90
2018-09-24T10:41:52.127Z,18.00
2018-09-24T10:44:25.729Z,18.40
2018-09-24T10:46:59.444Z,17.80
2018-09-24T10:49:33.096Z,16.70
2018-09-24T10:52:06.497Z,18.40
2018-09-24T10:54:40.233Z,19.20
2018-09-24T10:57:13.921Z,18.80
2018-09-24T10:59:47.477Z,18.80
2018-09-24T11:02:21.090Z,18.90
2018-09-24T11:04:54.787Z,19.20
2018-09-24T11:07:28.433Z,17.80
2018-09-24T11:10:02.080Z,18.90
2018-09-24T11:12:35.874Z,18.80
2018-09-24T11:15:09.411Z,18.20
2018-09-24T11:17:43.294Z,17.00
2018-09-24T11:20:16.712Z,17.10
2018-09-24T11:22:50.153Z,17.10
2018-09-24T11:25:23.854Z,19.30
2018-09-24T11:27:57.565Z,19.60
2018-09-24T11:30:31.064Z,19.00
2018-09-24T11:33:04.769Z,18.90
2018-09-24T11:35:38.380Z,20.00
2018-09-24T11:38:12.045Z,20.00
2018-09-24T11:40:45.520Z,18.30
2018-09-24T11:43:19.133Z,16.60
2018-09-24T11:45:52.661Z,16.10
2018-09-24T11:48:26.371Z,17.60
2018-09-24T11:50:59.788Z,17.90
2018-09-24T11:53:33.496Z,18.60
2018-09-24T11:56:07.207Z,19.60
2018-09-24T11:58:40.861Z,18.70
2018-09-24T12:01:14.559Z,19.90
2018-09-24T12:03:48.122Z,19.60
2018-09-24T12:06:21.716Z,19.60
2018-09-24T12:08:55.446Z,18.00
2018-09-24T12:11:29.075Z,17.10
2018-09-24T12:14:02.742Z,16.00
2018-09-24T12:16:36.204Z,17.00
2018-09-24T12:19:09.817Z,17.50
2018-09-24T12:21:43.538Z,17.30
2018-09-24T12:24:17.238Z,17.10
2018-09-24T12:26:50.865Z,17.50
2018-09-24T12:29:24.504Z,17.70
2018-09-24T12:31:58.056Z,18.30
2018-09-24T12:34:31.699Z,18.90
2018-09-24T12:37:05.536Z,18.00
2018-09-24T12:39:39.062Z,17.00
2018-09-24T12:42:12.422Z,16.50
2018-09-24T12:44:46.135Z,16.40
2018-09-24T12:47:19.825Z,17.00
2018-09-24T12:49:53.520Z,16.20
2018-09-24T12:52:27.045Z,15.30
2018-09-24T12:55:00.638Z,15.30
2018-09-24T12:57:34.314Z,15.50
2018-09-24T13:00:07.825Z,16.30
2018-09-24T13:02:41.496Z,17.50
2018-09-24T13:05:15.021Z,17.30
2018-09-24T13:07:48.673Z,17.00
2018-09-24T13:10:22.316Z,17.60
2018-09-24T13:12:56.030Z,17.30
2018-09-24T13:15:29.685Z,17.30
2018-09-24T13:18:03.085Z,17.00
2018-09-24T13:20:36.736Z,16.60
2018-09-24T13:23:10.365Z,15.50
2018-09-24T13:25:43.978Z,16.20
2018-09-24T13:28:17.654Z,16.50
2018-09-24T13:30:51.341Z,16.30
2018-09-24T13:33:25.090Z,16.50
2018-09-24T13:35:58.520Z,17.10
2018-09-24T13:38:32.169Z,17.00
2018-09-24T13:41:05.822Z,17.20
2018-09-24T13:43:39.316Z,16.80
2018-09-24T13:46:12.917Z,17.30
2018-09-24T13:48:46.524Z,17.50
2018-09-24T13:51:20.124Z,17.30
2018-09-24T13:53:53.621Z,17.70
2018-09-24T13:56:27.289Z,17.50
2018-09-24T13:59:00.805Z,16.70
2018-09-24T14:01:34.420Z,16.50
2018-09-24T14:04:08.021Z,16.10
2018-09-24T14:06:41.684Z,15.90
2018-09-24T14:09:15.260Z,15.80
2018-09-24T14:11:48.927Z,15.50
2018-09-24T14:14:22.453Z,15.30
2018-09-24T14:16:56.056Z,15.20
2018-09-24T14:19:29.737Z,15.30
2018-09-24T14:22:03.175Z,15.80
2018-09-24T14:24:36.906Z,15.40
2018-09-24T14:27:10.310Z,15.40
2018-09-24T14:29:43.909Z,15.50
2018-09-24T14:32:17.526Z,15.50
2018-09-24T14:34:52.321Z,15.40
2018-09-24T14:37:25.953Z,16.10
2018-09-24T14:39:59.907Z,16.50
2018-09-24T14:42:33.373Z,16.20
2018-09-24T14:45:06.998Z,16.10
2018-09-24T14:47:40.572Z,16.20
2018-09-24T14:50:14.145Z,16.20
2018-09-24T14:52:47.727Z,16.10
2018-09-24T14:55:21.238Z,15.90
2018-09-24T14:57:54.691Z,16.40
2018-09-24T15:00:28.361Z,16.50
2018-09-24T15:03:09.150Z,16.30
2018-09-24T15:05:42.883Z,16.60
2018-09-24T15:08:16.505Z,16.50
2018-09-24T15:10:50.168Z,16.70
2018-09-24T15:13:23.786Z,16.10
2018-09-24T15:15:57.182Z,15.80
2018-09-24T15:18:30.636Z,15.80
2018-09-24T15:21:04.393Z,15.90
2018-09-24T15:23:38.034Z,16.00
2018-09-24T15:26:21.273Z,15.90
2018-09-24T15:28:54.878Z,15.70
2018-09-24T15:31:29.013Z,15.60
2018-09-24T15:34:02.549Z,15.40
2018-09-24T15:36:36.369Z,15.70
2018-09-24T15:39:11.015Z,15.60
2018-09-24T15:41:44.535Z,15.20
2018-09-24T15:44:18.188Z,15.20
2018-09-24T15:46:51.805Z,15.10
2018-09-24T15:49:25.538Z,15.00
2018-09-24T15:51:59.173Z,14.90
2018-09-24T15:54:32.877Z,14.80
2018-09-24T15:57:06.506Z,14.60
2018-09-24T15:59:39.877Z,14.70
2018-09-24T16:02:13.453Z,14.70
2018-09-24T16:04:46.977Z,14.60
2018-09-24T16:07:20.410Z,14.80
2018-09-24T16:09:54.091Z,14.70
2018-09-24T16:12:27.540Z,14.60
2018-09-24T16:15:01.268Z,14.60
2018-09-24T16:17:34.708Z,14.50
2018-09-24T16:20:08.187Z,14.40
2018-09-24T16:22:41.871Z,14.40
2018-09-24T16:25:15.294Z,14.80
2018-09-24T16:27:48.897Z,14.40
2018-09-24T16:30:22.425Z,14.30
2018-09-24T16:32:56.062Z,14.30
2018-09-24T16:35:29.700Z,14.10
2018-09-24T16:38:03.329Z,14.10
2018-09-24T16:40:37.034Z,14.00
2018-09-24T16:43:10.437Z,13.90
2018-09-24T16:45:44.170Z,14.00
2018-09-24T16:48:17.795Z,13.80
2018-09-24T16:50:51.365Z,13.70
2018-09-24T16:53:24.804Z,13.70
2018-09-24T16:55:58.717Z,13.60
2018-09-24T16:58:32.171Z,13.50
2018-09-24T17:01:05.873Z,13.30
2018-09-24T17:03:39.412Z,13.20
2018-09-24T17:06:12.868Z,13.20
2018-09-24T17:08:46.568Z,13.10
2018-09-24T17:11:20.097Z,12.90
2018-09-24T17:13:53.796Z,12.80
2018-09-24T17:16:27.385Z,12.70
2018-09-24T17:19:00.870Z,12.70
2018-09-24T17:21:34.481Z,12.70
2018-09-24T17:24:08.146Z,12.70
2018-09-24T17:26:41.877Z,12.60
2018-09-24T17:29:15.449Z,12.40
2018-09-24T17:31:49.113Z,12.30
2018-09-24T17:34:22.729Z,12.10
2018-09-24T17:36:56.532Z,12.00
2018-09-24T17:39:30.186Z,11.80
2018-09-24T17:42:03.587Z,11.70
2018-09-24T17:44:37.304Z,11.60
2018-09-24T17:47:10.992Z,11.60
2018-09-24T17:49:44.485Z,11.50
2018-09-24T17:52:17.904Z,11.40
2018-09-24T17:54:51.310Z,11.30
2018-09-24T17:57:24.668Z,11.30
2018-09-24T17:59:58.044Z,11.60
2018-09-24T18:02:31.601Z,11.30
2018-09-24T18:05:05.157Z,11.10
2018-09-24T18:07:38.733Z,10.80
2018-09-24T18:10:12.413Z,10.60
2018-09-24T18:12:46.029Z,10.40
2018-09-24T18:15:19.516Z,10.50
2018-09-24T18:17:52.901Z,10.40
2018-09-24T18:20:26.485Z,10.30
2018-09-24T18:23:00.024Z,10.30
2018-09-24T18:25:33.710Z,10.20
2018-09-24T18:28:07.383Z,10.00
2018-09-24T18:30:41.017Z,9.70
2018-09-24T18:33:14.602Z,9.70
2018-09-24T18:35:47.940Z,9.70
2018-09-24T18:38:21.569Z,9.50
2018-09-24T18:40:55.174Z,9.40
2018-09-24T18:43:28.609Z,9.20
2018-09-24T18:46:02.213Z,9.00
2018-09-24T18:48:35.963Z,9.00
2018-09-24T18:51:09.533Z,9.00
2018-09-24T18:53:42.905Z,9.00
2018-09-24T18:56:16.662Z,8.90
2018-09-24T18:58:50.348Z,8.80
2018-09-24T19:01:24.110Z,8.70
2018-09-24T19:03:57.620Z,8.70
2018-09-24T19:06:31.195Z,8.70
2018-09-24T19:09:04.916Z,8.60
2018-09-24T19:11:38.482Z,8.50
2018-09-24T19:14:12.171Z,8.40
2018-09-24T19:16:45.780Z,8.40
2018-09-24T19:19:19.526Z,8.30
2018-09-24T19:21:53.133Z,8.20
2018-09-24T19:24:26.513Z,8.20
2018-09-24T19:27:00.174Z,8.10
2018-09-24T19:29:33.791Z,8.00
2018-09-24T19:32:07.373Z,8.10
2018-09-24T19:34:40.996Z,8.00
2018-09-24T19:37:14.573Z,8.00
2018-09-24T19:39:48.213Z,8.00
2018-09-24T19:42:21.881Z,8.00
2018-09-24T19:44:55.381Z,7.90
2018-09-24T19:47:28.872Z,7.80
2018-09-24T19:50:02.517Z,7.70
2018-09-24T19:52:36.177Z,7.70
2018-09-24T19:55:09.802Z,7.60
2018-09-24T19:57:43.321Z,7.50
2018-09-24T20:00:17.018Z,7.50
2018-09-24T20:02:50.417Z,7.40
2018-09-24T20:05:24.016Z,7.40
2018-09-24T20:07:58.268Z,7.30
2018-09-24T20:10:32.076Z,7.30
2018-09-24T20:13:05.593Z,7.30
2018-09-24T20:15:39.565Z,7.20
2018-09-24T20:18:13.224Z,7.20
2018-09-24T20:20:46.957Z,7.20
2018-09-24T20:23:20.914Z,7.20
2018-09-24T20:25:54.537Z,7.10
2018-09-24T20:28:28.969Z,7.10
2018-09-24T20:31:02.633Z,7.10
2018-09-24T20:33:36.087Z,7.00
2018-09-24T20:36:09.797Z,7.10
2018-09-24T20:38:43.414Z,7.10
2018-09-24T20:41:21.307Z,7.00
2018-09-24T20:43:54.897Z,7.00
2018-09-24T20:46:28.649Z,6.90
2018-09-24T20:49:02.349Z,6.90
2018-09-24T20:51:36.045Z,6.90
2018-09-24T20:54:10.055Z,6.90
2018-09-24T20:56:43.612Z,6.90
2018-09-24T20:59:17.201Z,6.90
2018-09-24T21:01:50.685Z,6.90
2018-09-24T21:04:24.400Z,6.80
2018-09-24T21:06:57.884Z,6.80
2018-09-24T21:09:31.492Z,6.80
2018-09-24T21:12:05.097Z,6.80
2018-09-24T21:14:38.449Z,6.80
2018-09-24T21:17:12.107Z,6.70
2018-09-24T21:19:45.678Z,6.70
2018-09-24T21:22:19.330Z,6.60
2018-09-24T21:24:52.989Z,6.60
2018-09-24T21:27:26.661Z,6.60
2018-09-24T21:30:00.022Z,6.60
2018-09-24T21:32:33.697Z,6.60
2018-09-24T21:35:07.333Z,6.60
2018-09-24T21:37:40.990Z,6.50
2018-09-24T21:40:14.565Z,6.50
2018-09-24T21:42:48.234Z,6.40
2018-09-24T21:45:21.926Z,6.30
2018-09-24T21:47:55.597Z,6.40
2018-09-24T21:50:29.272Z,6.50
2018-09-24T21:53:02.875Z,6.50
2018-09-24T21:55:36.422Z,6.50
2018-09-24T21:58:09.809Z,6.70
2018-09-24T22:00:43.296Z,6.60
2018-09-24T22:03:16.916Z,6.50
2018-09-24T22:05:50.368Z,6.50
2018-09-24T22:08:23.981Z,6.40
2018-09-24T22:10:57.669Z,6.30
2018-09-24T22:13:31.096Z,6.20
2018-09-24T22:16:04.592Z,6.10
2018-09-24T22:18:38.240Z,6.10
2018-09-24T22:21:11.917Z,6.10
2018-09-24T22:23:45.498Z,6.20
2018-09-24T22:26:19.062Z,6.10
2018-09-24T22:28:52.756Z,6.10
2018-09-24T22:31:26.464Z,6.10
2018-09-24T22:34:00.013Z,6.00
2018-09-24T22:36:33.392Z,6.00
2018-09-24T22:39:06.996Z,5.90
2018-09-24T22:41:40.716Z,6.00
2018-09-24T22:44:14.365Z,6.10
2018-09-24T22:46:48.106Z,6.00
2018-09-24T22:49:21.793Z,6.00
2018-09-24T22:51:55.488Z,6.00
2018-09-24T22:54:29.177Z,5.80
2018-09-24T22:57:02.810Z,5.70
2018-09-24T22:59:36.353Z,5.60
2018-09-24T23:02:09.971Z,5.60
2018-09-24T23:04:43.308Z,5.70
2018-09-24T23:07:16.961Z,5.80
2018-09-24T23:09:50.677Z,5.60
2018-09-24T23:12:24.144Z,5.50
2018-09-24T23:14:57.813Z,5.50
2018-09-24T23:17:31.169Z,5.50
2018-09-24T23:20:05.015Z,5.50
2018-09-24T23:22:38.421Z,5.40
2018-09-24T23:25:12.059Z,5.30
2018-09-24T23:27:45.705Z,5.30
2018-09-24T23:30:19.309Z,5.30
2018-09-24T23:32:52.953Z,5.30
2018-09-24T23:35:26.590Z,5.40
2018-09-24T23:38:00.262Z,5.40
2018-09-24T23:40:34.051Z,5.40
2018-09-24T23:43:07.517Z,5.40
2018-09-24T23:45:41.197Z,5.50
2018-09-24T23:48:14.898Z,5.30
2018-09-24T23:50:48.493Z,5.30
2018-09-24T23:53:22.131Z,5.20
2018-09-24T23:55:55.727Z,5.30
2018-09-24T23:58:29.391Z,5.30
